createdAt,value
2018-09-05T00:01:20.623Z,28.25
2018-09-05T00:02:24.234Z,24.02
2018-09-05T00:03:27.821Z,29.67
2018-09-05T00:04:31.620Z,24.92
2018-09-05T00:05:35.362Z,26.55
2018-09-05T00:06:38.875Z,25.62
2018-09-05T00:07:42.437Z,28.15
2018-09-05T00:08:46.209Z,26.97
2018-09-05T00:09:49.891Z,25.08
2018-09-05T00:10:53.850Z,26.40
2018-09-05T00:11:58.450Z,25.52
2018-09-05T00:13:02.247Z,26.02
2018-09-05T00:14:06.359Z,24.35
2018-09-05T00:15:10.729Z,24.87
2018-09-05T00:16:14.274Z,24.35
2018-09-05T00:17:17.932Z,27.15
2018-09-05T00:18:21.508Z,22.80
2018-09-05T00:19:25.975Z,25.85
2018-09-05T00:20:29.687Z,30.30
2018-09-05T00:21:33.254Z,28.25
2018-09-05T00:22:36.821Z,30.30
2018-09-05T00:23:40.501Z,26.12
2018-09-05T00:24:44.372Z,27.75
2018-09-05T00:25:47.873Z,28.27
2018-09-05T00:26:52.293Z,24.72
2018-09-05T00:27:55.879Z,26.93
2018-09-05T00:28:59.710Z,25.82
2018-09-05T00:30:03.308Z,27.02
2018-09-05T00:31:09.799Z,23.70
2018-09-05T00:32:13.492Z,27.15
2018-09-05T00:33:17.390Z,26.17
2018-09-05T00:34:21.178Z,23.07
2018-09-05T00:35:24.856Z,25.55
2018-09-05T00:36:28.756Z,23.95
2018-09-05T00:37:33.397Z,24.27
2018-09-05T00:38:37.190Z,24.70
2018-09-05T00:39:40.996Z,26.00
2018-09-05T00:40:44.966Z,24.40
2018-09-05T00:41:48.548Z,28.62
2018-09-05T00:42:52.061Z,28.27
2018-09-05T00:43:56.078Z,26.25
2018-09-05T00:44:59.825Z,28.25
2018-09-05T00:46:03.318Z,29.15
2018-09-05T00:47:06.843Z,26.50
2018-09-05T00:48:10.603Z,28.92
2018-09-05T00:49:14.195Z,26.07
2018-09-05T00:50:17.717Z,29.23
2018-09-05T00:51:22.031Z,26.87
2018-09-05T00:52:25.526Z,30.92
2018-09-05T00:53:29.024Z,30.25
2018-09-05T00:54:32.893Z,27.80
2018-09-05T00:55:36.434Z,23.85
2018-09-05T00:56:39.959Z,24.30
2018-09-05T00:57:43.525Z,30.23
2018-09-05T00:59:57.877Z,26.62
2018-09-05T01:01:01.616Z,25.95
2018-09-05T01:02:05.253Z,28.98
2018-09-05T01:03:08.774Z,28.15
2018-09-05T01:04:13.290Z,28.38
2018-09-05T01:05:16.788Z,28.40
2018-09-05T01:06:20.426Z,27.25
2018-09-05T01:07:27.061Z,28.65
2018-09-05T01:08:31.579Z,26.07
2018-09-05T01:09:35.094Z,28.77
2018-09-05T01:10:38.717Z,29.60
2018-09-05T01:11:42.847Z,29.12
2018-09-05T01:12:46.478Z,26.65
2018-09-05T01:13:49.993Z,28.10
2018-09-05T01:14:54.640Z,30.00
2018-09-05T01:15:58.139Z,28.55
2018-09-05T01:17:01.801Z,29.10
2018-09-05T01:18:12.408Z,26.85
2018-09-05T01:19:17.000Z,29.80
2018-09-05T01:20:21.508Z,27.40
2018-09-05T01:21:26.479Z,28.05
2018-09-05T01:22:30.723Z,31.15
2018-09-05T01:23:35.080Z,28.07
2018-09-05T01:24:39.061Z,26.73
2018-09-05T01:25:42.564Z,27.55
2018-09-05T01:26:46.402Z,27.60
2018-09-05T01:27:50.409Z,26.62
2018-09-05T01:28:54.213Z,25.65
2018-09-05T01:29:58.314Z,27.58
2018-09-05T01:31:01.889Z,30.48
2018-09-05T01:32:05.470Z,30.77
2018-09-05T01:33:08.990Z,27.02
2018-09-05T01:34:12.528Z,28.95
2018-09-05T01:35:16.224Z,30.43
2018-09-05T01:36:19.826Z,30.32
2018-09-05T01:37:23.511Z,27.05
2018-09-05T01:38:28.449Z,30.77
2018-09-05T01:39:31.955Z,28.38
2018-09-05T01:40:35.521Z,30.75
2018-09-05T01:41:39.626Z,26.60
2018-09-05T01:42:43.216Z,26.15
2018-09-05T01:43:47.233Z,29.60
2018-09-05T01:44:50.870Z,29.50
2018-09-05T01:45:54.576Z,26.50
2018-09-05T01:46:58.113Z,30.52
2018-09-05T01:48:01.806Z,29.60
2018-09-05T01:49:05.616Z,32.50
2018-09-05T01:50:09.155Z,29.18
2018-09-05T01:51:12.838Z,27.45
2018-09-05T01:52:33.529Z,26.05
2018-09-05T01:53:37.904Z,29.30
2018-09-05T01:54:42.175Z,30.48
2018-09-05T01:55:45.686Z,32.53
2018-09-05T01:56:49.164Z,28.75
2018-09-05T01:57:52.658Z,26.50
2018-09-05T01:58:56.167Z,28.20
2018-09-05T01:59:59.680Z,29.65
2018-09-05T02:01:03.227Z,28.52
2018-09-05T02:02:06.781Z,27.25
2018-09-05T02:03:10.267Z,29.50
2018-09-05T02:04:13.822Z,30.68
2018-09-05T02:05:17.436Z,26.52
2018-09-05T02:06:21.596Z,32.00
2018-09-05T02:07:25.102Z,33.33
2018-09-05T02:08:29.685Z,27.60
2018-09-05T02:09:33.746Z,27.95
2018-09-05T02:10:37.449Z,29.37
2018-09-05T02:11:40.993Z,29.20
2018-09-05T02:12:44.482Z,29.77
2018-09-05T02:13:48.640Z,28.55
2018-09-05T02:14:52.328Z,32.35
2018-09-05T02:15:55.928Z,30.08
2018-09-05T02:16:59.402Z,29.95
2018-09-05T02:18:03.034Z,29.37
2018-09-05T02:19:06.608Z,29.52
2018-09-05T02:20:10.668Z,27.82
2018-09-05T02:21:14.506Z,30.50
2018-09-05T02:22:18.060Z,27.30
2018-09-05T02:23:21.738Z,25.90
2018-09-05T02:24:25.402Z,31.05
2018-09-05T02:25:29.483Z,27.10
2018-09-05T02:26:33.745Z,29.52
2018-09-05T02:27:37.267Z,28.87
2018-09-05T02:28:40.792Z,27.65
2018-09-05T02:29:44.338Z,26.12
2018-09-05T02:30:48.056Z,27.02
2018-09-05T02:31:51.624Z,27.98
2018-09-05T02:32:55.221Z,31.45
2018-09-05T02:33:58.770Z,27.65
2018-09-05T02:35:02.762Z,29.40
2018-09-05T02:36:07.008Z,28.52
2018-09-05T02:37:10.529Z,26.65
2018-09-05T02:38:14.082Z,23.27
2018-09-05T02:39:17.865Z,27.65
2018-09-05T02:40:21.393Z,30.37
2018-09-05T02:41:25.359Z,27.27
2018-09-05T02:42:29.512Z,28.35
2018-09-05T02:43:38.387Z,27.07
2018-09-05T02:44:41.974Z,29.42
2018-09-05T02:45:45.538Z,28.98
2018-09-05T02:46:49.274Z,26.87
2018-09-05T02:47:52.861Z,30.08
2018-09-05T02:48:56.372Z,27.85
2018-09-05T02:49:59.900Z,26.50
2018-09-05T02:51:03.628Z,27.73
2018-09-05T02:52:07.262Z,29.45
2018-09-05T02:53:11.562Z,27.00
2018-09-05T02:54:15.564Z,28.20
2018-09-05T02:55:24.578Z,28.17
2018-09-05T02:56:28.144Z,26.77
2018-09-05T02:57:33.122Z,28.52
2018-09-05T02:58:36.646Z,28.25
2018-09-05T02:59:40.145Z,28.40
2018-09-05T03:00:43.709Z,26.90
2018-09-05T03:01:47.287Z,28.50
2018-09-05T03:02:50.866Z,28.62
2018-09-05T03:03:54.523Z,26.42
2018-09-05T03:04:58.088Z,28.67
2018-09-05T03:06:01.599Z,31.87
2018-09-05T03:07:05.157Z,31.27
2018-09-05T03:08:08.768Z,32.75
2018-09-05T03:09:12.384Z,30.97
2018-09-05T03:10:15.854Z,34.35
2018-09-05T03:11:19.532Z,29.90
2018-09-05T03:12:23.065Z,31.20
2018-09-05T03:13:26.914Z,36.63
2018-09-05T03:14:30.531Z,32.80
2018-09-05T03:15:34.815Z,30.25
2018-09-05T03:16:38.385Z,30.70
2018-09-05T03:17:41.864Z,33.95
2018-09-05T03:18:45.369Z,32.85
2018-09-05T03:19:48.885Z,34.10
2018-09-05T03:20:52.875Z,36.25
2018-09-05T03:21:56.782Z,30.80
2018-09-05T03:23:00.555Z,31.23
2018-09-05T03:24:04.103Z,33.00
2018-09-05T03:25:08.210Z,35.10
2018-09-05T03:26:11.804Z,35.95
2018-09-05T03:27:15.334Z,30.88
2018-09-05T03:28:18.933Z,32.53
2018-09-05T03:29:23.326Z,32.78
2018-09-05T03:30:26.795Z,33.78
2018-09-05T03:31:31.171Z,36.30
2018-09-05T03:32:34.964Z,35.88
2018-09-05T03:33:38.240Z,38.63
2018-09-05T03:34:42.198Z,36.40
2018-09-05T03:35:45.780Z,36.65
2018-09-05T03:36:50.719Z,37.33
2018-09-05T03:37:54.465Z,36.00
2018-09-05T03:38:57.980Z,34.45
2018-09-05T03:40:01.461Z,35.80
2018-09-05T03:41:05.005Z,36.53
2018-09-05T03:42:08.458Z,36.58
2018-09-05T03:43:12.723Z,43.28
2018-09-05T03:44:16.914Z,42.33
2018-09-05T03:45:20.422Z,38.65
2018-09-05T03:46:24.054Z,41.90
2018-09-05T03:47:27.651Z,41.48
2018-09-05T03:48:31.465Z,41.65
2018-09-05T03:49:35.828Z,41.90
2018-09-05T03:50:39.668Z,40.48
2018-09-05T03:51:43.246Z,40.17
2018-09-05T03:52:47.242Z,40.60
2018-09-05T03:53:50.921Z,41.40
2018-09-05T03:54:55.241Z,43.17
2018-09-05T03:55:58.874Z,44.88
2018-09-05T03:57:02.384Z,43.58
2018-09-05T03:58:06.085Z,44.18
2018-09-05T03:59:09.746Z,48.50
2018-09-05T04:00:14.502Z,46.05
2018-09-05T04:01:18.847Z,40.98
2018-09-05T04:02:22.435Z,46.05
2018-09-05T04:03:25.953Z,46.20
2018-09-05T04:04:29.475Z,46.13
2018-09-05T04:05:33.093Z,43.68
2018-09-05T04:06:37.230Z,44.15
2018-09-05T04:07:40.743Z,45.43
2018-09-05T04:08:44.264Z,46.28
2018-09-05T04:09:47.751Z,45.90
2018-09-05T04:10:51.269Z,46.53
2018-09-05T04:11:54.818Z,60.40
2018-09-05T04:12:58.726Z,50.30
2018-09-05T04:14:02.227Z,48.95
2018-09-05T04:15:06.345Z,52.33
2018-09-05T04:16:09.839Z,52.88
2018-09-05T04:17:13.428Z,49.60
2018-09-05T04:18:16.923Z,53.13
2018-09-05T04:19:32.264Z,49.55
2018-09-05T04:20:35.837Z,56.25
2018-09-05T04:21:39.316Z,53.35
2018-09-05T04:22:43.030Z,56.58
2018-09-05T04:23:49.193Z,59.45
2018-09-05T04:24:52.778Z,61.77
2018-09-05T04:25:56.343Z,56.98
2018-09-05T04:26:59.872Z,56.37
2018-09-05T04:28:03.372Z,56.25
2018-09-05T04:29:06.910Z,58.75
2018-09-05T04:30:11.588Z,54.83
2018-09-05T04:31:15.970Z,53.05
2018-09-05T04:32:20.049Z,59.42
2018-09-05T04:33:23.573Z,54.65
2018-09-05T04:34:27.088Z,61.48
2018-09-05T04:35:30.732Z,61.75
2018-09-05T04:36:34.383Z,70.45
2018-09-05T04:37:38.697Z,62.38
2018-09-05T04:38:43.061Z,63.00
2018-09-05T04:39:46.631Z,62.98
2018-09-05T04:40:50.146Z,65.15
2018-09-05T04:41:53.921Z,61.92
2018-09-05T04:42:57.440Z,60.63
2018-09-05T04:44:01.069Z,61.28
2018-09-05T04:45:04.664Z,61.90
2018-09-05T04:46:08.349Z,63.48
2018-09-05T04:47:12.071Z,67.17
2018-09-05T04:48:15.572Z,73.00
2018-09-05T04:49:19.517Z,68.97
2018-09-05T04:50:23.179Z,74.40
2018-09-05T04:51:26.668Z,72.95
2018-09-05T04:52:36.392Z,67.65
2018-09-05T04:53:41.045Z,64.50
2018-09-05T04:54:44.552Z,68.78
2018-09-05T04:55:48.166Z,67.30
2018-09-05T04:56:51.939Z,75.57
2018-09-05T04:57:56.395Z,78.00
2018-09-05T04:58:59.916Z,74.82
2018-09-05T05:00:03.533Z,77.15
2018-09-05T05:01:07.637Z,79.45
2018-09-05T05:02:11.285Z,81.30
2018-09-05T05:03:15.126Z,74.03
2018-09-05T05:04:18.751Z,73.20
2018-09-05T05:05:22.449Z,69.75
2018-09-05T05:06:25.944Z,76.15
2018-09-05T05:07:29.495Z,72.95
2018-09-05T05:08:33.240Z,72.25
2018-09-05T05:09:37.496Z,67.87
2018-09-05T05:10:41.642Z,68.75
2018-09-05T05:11:45.452Z,69.27
2018-09-05T05:12:49.051Z,70.87
2018-09-05T05:13:52.744Z,70.80
2018-09-05T05:14:56.849Z,69.03
2018-09-05T05:16:00.377Z,73.33
2018-09-05T05:17:03.941Z,73.40
2018-09-05T05:18:07.577Z,77.05
2018-09-05T05:19:11.399Z,78.78
2018-09-05T05:20:14.924Z,67.17
2018-09-05T05:21:18.594Z,72.82
2018-09-05T05:22:22.312Z,64.27
2018-09-05T05:23:25.870Z,62.58
2018-09-05T05:24:29.495Z,54.67
2018-09-05T05:25:33.423Z,57.15
2018-09-05T05:26:37.638Z,57.23
2018-09-05T05:27:41.250Z,55.25
2018-09-05T05:28:45.267Z,53.28
2018-09-05T05:29:48.857Z,47.80
2018-09-05T05:30:52.492Z,50.15
2018-09-05T05:31:56.046Z,47.73
2018-09-05T05:32:59.702Z,47.23
2018-09-05T05:34:03.150Z,45.67
2018-09-05T05:35:06.793Z,46.45
2018-09-05T05:36:10.434Z,42.90
2018-09-05T05:37:14.544Z,45.98
2018-09-05T05:38:19.745Z,44.27
2018-09-05T05:39:23.661Z,44.48
2018-09-05T05:40:27.922Z,45.12
2018-09-05T05:41:31.654Z,44.13
2018-09-05T05:42:36.550Z,42.23
2018-09-05T05:43:40.399Z,41.95
2018-09-05T05:44:45.359Z,41.33
2018-09-05T05:45:49.510Z,45.88
2018-09-05T05:46:53.243Z,41.98
2018-09-05T05:47:57.690Z,45.25
2018-09-05T05:49:04.670Z,41.48
2018-09-05T05:50:08.747Z,42.62
2018-09-05T05:51:13.946Z,39.75
2018-09-05T05:52:17.468Z,41.92
2018-09-05T05:53:21.198Z,41.33
2018-09-05T05:54:24.790Z,39.35
2018-09-05T05:55:28.310Z,38.45
2018-09-05T05:56:31.870Z,34.50
2018-09-05T05:57:36.778Z,38.75
2018-09-05T05:58:40.913Z,38.83
2018-09-05T05:59:45.445Z,39.30
2018-09-05T06:00:49.071Z,36.73
2018-09-05T06:01:52.680Z,38.25
2018-09-05T06:02:56.910Z,35.13
2018-09-05T06:04:00.554Z,36.93
2018-09-05T06:05:04.150Z,32.48
2018-09-05T06:06:07.971Z,31.33
2018-09-05T06:07:11.771Z,39.25
2018-09-05T06:08:15.963Z,36.13
2018-09-05T06:09:20.525Z,33.73
2018-09-05T06:10:25.830Z,34.92
2018-09-05T06:11:30.355Z,31.82
2018-09-05T06:12:33.894Z,30.23
2018-09-05T06:13:39.177Z,29.95
2018-09-05T06:14:42.712Z,29.60
2018-09-05T06:15:46.314Z,29.05
2018-09-05T06:16:50.842Z,31.17
2018-09-05T06:17:54.395Z,35.40
2018-09-05T06:18:58.804Z,32.70
2018-09-05T06:20:02.417Z,30.05
2018-09-05T06:21:06.149Z,28.67
2018-09-05T06:22:09.797Z,31.05
2018-09-05T06:23:13.453Z,27.90
2018-09-05T06:24:16.990Z,28.30
2018-09-05T06:25:20.677Z,27.98
2018-09-05T06:26:24.950Z,26.73
2018-09-05T06:27:28.717Z,26.35
2018-09-05T06:28:32.465Z,25.65
2018-09-05T06:29:36.062Z,29.95
2018-09-05T06:30:39.860Z,29.12
2018-09-05T06:31:43.358Z,26.07
2018-09-05T06:32:46.898Z,28.40
2018-09-05T06:33:50.410Z,26.35
2018-09-05T06:34:53.884Z,23.98
2018-09-05T06:35:57.369Z,25.48
2018-09-05T06:37:01.320Z,25.02
2018-09-05T06:38:05.606Z,26.55
2018-09-05T06:39:11.046Z,21.93
2018-09-05T06:40:14.626Z,20.95
2018-09-05T06:41:18.283Z,23.10
2018-09-05T06:42:22.027Z,21.02
2018-09-05T06:43:25.489Z,24.10
2018-09-05T06:44:29.597Z,24.85
2018-09-05T06:45:33.137Z,24.02
2018-09-05T06:46:36.878Z,24.82
2018-09-05T06:47:41.172Z,21.85
2018-09-05T06:48:44.778Z,20.15
2018-09-05T06:49:49.258Z,21.25
2018-09-05T06:50:57.832Z,20.85
2018-09-05T06:52:01.399Z,26.57
2018-09-05T06:53:05.157Z,22.50
2018-09-05T06:54:08.842Z,21.70
2018-09-05T06:55:13.090Z,21.57
2018-09-05T06:56:16.653Z,24.35
2018-09-05T06:57:20.196Z,19.30
2018-09-05T06:58:23.944Z,24.27
2018-09-05T06:59:27.400Z,22.50
2018-09-05T07:00:31.007Z,22.10
2018-09-05T07:01:34.611Z,20.25
2018-09-05T07:02:38.324Z,19.52
2018-09-05T07:03:41.990Z,18.35
2018-09-05T07:04:45.516Z,20.45
2018-09-05T07:05:49.458Z,17.92
2018-09-05T07:06:53.098Z,19.48
2018-09-05T07:07:56.977Z,17.60
2018-09-05T07:09:00.559Z,17.00
2018-09-05T07:10:04.376Z,21.15
2018-09-05T07:11:08.157Z,19.02
2018-09-05T07:12:12.016Z,17.90
2018-09-05T07:13:16.006Z,15.25
2018-09-05T07:14:19.669Z,20.10
2018-09-05T07:15:23.212Z,16.20
2018-09-05T07:16:26.813Z,20.55
2018-09-05T07:17:30.397Z,16.67
2018-09-05T07:18:33.930Z,18.90
2018-09-05T07:19:38.059Z,20.75
2018-09-05T07:20:41.832Z,16.97
2018-09-05T07:21:45.711Z,17.87
2018-09-05T07:22:49.300Z,19.37
2018-09-05T07:23:53.012Z,19.05
2018-09-05T07:24:56.671Z,16.95
2018-09-05T07:26:00.349Z,16.05
2018-09-05T07:27:04.574Z,17.32
2018-09-05T07:28:08.797Z,17.80
2018-09-05T07:29:12.480Z,17.55
2018-09-05T07:30:17.052Z,16.48
2018-09-05T07:31:20.729Z,18.32
2018-09-05T07:32:24.298Z,16.50
2018-09-05T07:33:28.027Z,16.02
2018-09-05T07:34:31.942Z,18.77
2018-09-05T07:35:35.698Z,17.62
2018-09-05T07:36:39.967Z,17.12
2018-09-05T07:37:43.498Z,15.72
2018-09-05T07:38:47.266Z,22.30
2018-09-05T07:39:50.843Z,17.35
2018-09-05T07:40:54.343Z,17.45
2018-09-05T07:41:57.942Z,18.77
2018-09-05T07:43:01.521Z,17.12
2018-09-05T07:44:05.421Z,16.67
2018-09-05T07:45:09.691Z,17.12
2018-09-05T07:46:13.820Z,18.52
2018-09-05T07:47:17.456Z,15.95
2018-09-05T07:48:21.309Z,15.20
2018-09-05T07:49:25.063Z,16.75
2018-09-05T07:50:28.705Z,16.15
2018-09-05T07:51:32.464Z,17.15
2018-09-05T07:52:36.667Z,17.12
2018-09-05T07:53:40.355Z,14.80
2018-09-05T07:54:44.186Z,17.82
2018-09-05T07:55:47.962Z,15.58
2018-09-05T07:56:51.504Z,13.65
2018-09-05T07:57:55.160Z,16.27
2018-09-05T07:58:59.437Z,16.05
2018-09-05T08:00:03.174Z,15.65
2018-09-05T08:01:09.843Z,16.80
2018-09-05T08:02:13.922Z,19.42
2018-09-05T08:03:17.824Z,15.63
2018-09-05T08:04:21.667Z,17.67
2018-09-05T08:05:25.303Z,15.38
2018-09-05T08:06:28.903Z,16.07
2018-09-05T08:07:32.491Z,16.15
2018-09-05T08:08:36.029Z,16.15
2018-09-05T08:09:40.121Z,14.95
2018-09-05T08:10:44.790Z,12.80
2018-09-05T08:11:49.116Z,17.95
2018-09-05T08:12:52.670Z,14.45
2018-09-05T08:13:56.210Z,16.12
2018-09-05T08:14:59.753Z,14.78
2018-09-05T08:16:03.250Z,15.65
2018-09-05T08:17:06.830Z,16.20
2018-09-05T08:18:10.482Z,14.07
2018-09-05T08:19:14.172Z,13.62
2018-09-05T08:20:18.353Z,14.95
2018-09-05T08:21:22.023Z,14.30
2018-09-05T08:22:25.598Z,15.85
2018-09-05T08:23:29.139Z,16.82
2018-09-05T08:24:32.722Z,13.95
2018-09-05T08:25:36.397Z,14.43
2018-09-05T08:26:40.033Z,15.65
2018-09-05T08:27:43.746Z,13.43
2018-09-05T08:28:47.282Z,16.37
2018-09-05T08:29:51.903Z,17.15
2018-09-05T08:30:55.454Z,15.38
2018-09-05T08:31:59.223Z,15.60
2018-09-05T08:33:02.737Z,14.00
2018-09-05T08:34:06.322Z,13.98
2018-09-05T08:35:10.170Z,20.12
2018-09-05T08:36:13.669Z,13.40
2018-09-05T08:37:17.629Z,15.78
2018-09-05T08:38:21.225Z,11.97
2018-09-05T08:39:24.772Z,14.35
2018-09-05T08:40:28.555Z,13.40
2018-09-05T08:41:32.118Z,15.32
2018-09-05T08:42:36.635Z,13.40
2018-09-05T08:43:41.340Z,12.13
2018-09-05T08:44:44.847Z,13.60
2018-09-05T08:45:48.867Z,12.53
2018-09-05T08:46:52.279Z,13.80
2018-09-05T08:47:56.331Z,13.85
2018-09-05T08:48:59.834Z,13.32
2018-09-05T08:50:03.556Z,13.55
2018-09-05T08:51:07.238Z,15.55
2018-09-05T08:52:10.955Z,16.05
2018-09-05T08:53:14.851Z,12.35
2018-09-05T08:54:19.021Z,12.18
2018-09-05T08:55:22.710Z,14.87
2018-09-05T08:56:26.222Z,12.70
2018-09-05T08:57:30.015Z,12.85
2018-09-05T08:58:33.777Z,11.55
2018-09-05T08:59:37.300Z,13.60
2018-09-05T09:00:40.845Z,13.75
2018-09-05T09:01:44.510Z,11.85
2018-09-05T09:02:48.248Z,14.83
2018-09-05T09:03:51.783Z,13.53
2018-09-05T09:04:55.722Z,14.95
2018-09-05T09:05:59.240Z,13.30
2018-09-05T09:07:03.390Z,13.68
2018-09-05T09:08:06.967Z,13.30
2018-09-05T09:09:12.338Z,14.28
2018-09-05T09:10:16.196Z,12.70
2018-09-05T09:11:19.836Z,13.00
2018-09-05T09:12:23.385Z,14.00
2018-09-05T09:13:27.140Z,11.18
2018-09-05T09:14:30.670Z,11.95
2018-09-05T09:15:34.934Z,12.07
2018-09-05T09:16:38.746Z,15.63
2018-09-05T09:17:42.683Z,12.00
2018-09-05T09:18:46.229Z,13.55
2018-09-05T09:19:49.746Z,12.68
2018-09-05T09:20:53.317Z,13.38
2018-09-05T09:21:57.596Z,12.68
2018-09-05T09:23:01.433Z,11.88
2018-09-05T09:24:05.249Z,11.78
2018-09-05T09:25:08.836Z,13.80
2018-09-05T09:26:12.499Z,12.55
2018-09-05T09:27:16.158Z,12.85
2018-09-05T09:28:19.882Z,10.43
2018-09-05T09:29:23.393Z,12.90
2018-09-05T09:30:26.978Z,12.33
2018-09-05T09:31:30.622Z,12.37
2018-09-05T09:32:34.339Z,12.78
2018-09-05T09:33:37.836Z,12.00
2018-09-05T09:34:41.685Z,12.03
2018-09-05T09:35:45.190Z,13.08
2018-09-05T09:36:48.829Z,12.93
2018-09-05T09:37:52.498Z,15.65
2018-09-05T09:38:56.045Z,12.37
2018-09-05T09:39:59.858Z,11.00
2018-09-05T09:41:03.702Z,12.70
2018-09-05T09:42:08.154Z,9.45
2018-09-05T09:43:11.797Z,8.25
2018-09-05T09:44:15.891Z,9.35
2018-09-05T09:45:19.855Z,9.90
2018-09-05T09:46:23.399Z,9.78
2018-09-05T09:47:27.686Z,11.30
2018-09-05T09:48:31.555Z,10.03
2018-09-05T09:49:35.998Z,8.10
2018-09-05T09:50:39.505Z,8.75
2018-09-05T09:51:43.269Z,10.32
2018-09-05T09:52:47.300Z,9.33
2018-09-05T09:53:51.897Z,9.85
2018-09-05T09:54:56.165Z,10.15
2018-09-05T09:55:59.840Z,9.40
2018-09-05T09:57:03.565Z,9.73
2018-09-05T09:58:07.239Z,12.20
2018-09-05T09:59:11.866Z,7.95
2018-09-05T10:00:19.636Z,10.85
2018-09-05T10:01:28.684Z,9.40
2018-09-05T10:02:37.764Z,8.05
2018-09-05T10:03:46.822Z,9.58
2018-09-05T10:04:56.538Z,11.65
2018-09-05T10:06:06.283Z,9.40
2018-09-05T10:07:15.483Z,10.65
2018-09-05T10:09:25.042Z,8.65
2018-09-05T10:10:33.942Z,12.95
2018-09-05T10:11:43.666Z,9.90
2018-09-05T10:12:51.573Z,10.53
2018-09-05T10:14:00.863Z,9.08
2018-09-05T10:16:11.904Z,12.00
2018-09-05T10:17:20.607Z,9.30
2018-09-05T10:18:30.113Z,10.13
2018-09-05T10:19:34.594Z,10.18
2018-09-05T10:20:38.725Z,10.58
2018-09-05T10:21:42.847Z,11.12
2018-09-05T10:22:47.024Z,9.90
2018-09-05T10:23:50.561Z,8.45
2018-09-05T10:24:55.252Z,9.28
2018-09-05T10:25:59.041Z,9.15
2018-09-05T10:27:02.702Z,10.80
2018-09-05T10:28:06.229Z,10.08
2018-09-05T10:29:10.043Z,10.55
2018-09-05T10:30:13.632Z,12.53
2018-09-05T10:31:17.945Z,11.05
2018-09-05T10:32:22.837Z,9.00
2018-09-05T10:33:27.454Z,11.53
2018-09-05T10:34:31.160Z,11.20
2018-09-05T10:35:34.738Z,10.65
2018-09-05T10:36:38.989Z,11.97
2018-09-05T10:37:43.203Z,10.00
2018-09-05T10:38:46.723Z,12.58
2018-09-05T10:39:50.661Z,10.30
2018-09-05T10:40:55.534Z,9.53
2018-09-05T10:41:59.136Z,10.05
2018-09-05T10:43:02.681Z,11.30
2018-09-05T10:44:09.797Z,10.20
2018-09-05T10:45:13.538Z,9.90
2018-09-05T10:46:17.053Z,9.80
2018-09-05T10:47:20.620Z,11.38
2018-09-05T10:48:24.326Z,11.68
2018-09-05T10:49:27.955Z,10.18
2018-09-05T10:50:31.499Z,8.83
2018-09-05T10:51:40.596Z,10.10
2018-09-05T10:52:44.158Z,9.58
2018-09-05T10:53:48.255Z,13.35
2018-09-05T10:54:52.779Z,12.82
2018-09-05T10:55:56.654Z,12.35
2018-09-05T10:57:00.984Z,9.10
2018-09-05T10:58:04.913Z,12.23
2018-09-05T10:59:09.224Z,10.75
2018-09-05T11:00:13.082Z,9.88
2018-09-05T11:01:16.806Z,11.00
2018-09-05T11:02:20.706Z,12.45
2018-09-05T11:03:24.447Z,9.50
2018-09-05T11:04:28.295Z,9.18
2018-09-05T11:05:32.031Z,11.68
2018-09-05T11:06:35.881Z,11.05
2018-09-05T11:07:39.401Z,9.55
2018-09-05T11:08:43.133Z,12.55
2018-09-05T11:09:46.918Z,13.72
2018-09-05T11:10:51.923Z,12.70
2018-09-05T11:11:55.501Z,10.30
2018-09-05T11:12:59.009Z,11.18
2018-09-05T11:14:02.594Z,13.62
2018-09-05T11:15:06.440Z,9.75
2018-09-05T11:16:09.961Z,11.78
2018-09-05T11:17:13.487Z,10.43
2018-09-05T11:18:17.132Z,10.88
2018-09-05T11:19:20.645Z,11.90
2018-09-05T11:20:24.485Z,10.05
2018-09-05T11:21:28.571Z,8.88
2018-09-05T11:22:32.772Z,9.90
2018-09-05T11:23:36.432Z,11.10
2018-09-05T11:24:39.954Z,10.55
2018-09-05T11:25:43.783Z,12.65
2018-09-05T11:26:47.369Z,11.22
2018-09-05T11:27:50.953Z,10.00
2018-09-05T11:28:54.964Z,11.60
2018-09-05T11:29:58.708Z,10.65
2018-09-05T11:31:02.193Z,13.88
2018-09-05T11:32:07.336Z,15.45
2018-09-05T11:33:10.990Z,9.88
2018-09-05T11:34:14.623Z,13.85
2018-09-05T11:35:18.561Z,11.53
2018-09-05T11:36:23.190Z,9.58
2018-09-05T11:37:27.270Z,11.03
2018-09-05T11:38:31.147Z,11.50
2018-09-05T11:39:34.696Z,10.93
2018-09-05T11:40:39.208Z,10.15
2018-09-05T11:41:42.932Z,9.98
2018-09-05T11:42:46.455Z,8.73
2018-09-05T11:43:51.273Z,8.18
2018-09-05T11:44:55.373Z,8.58
2018-09-05T11:45:59.672Z,8.75
2018-09-05T11:47:04.570Z,8.85
2018-09-05T11:48:09.500Z,8.88
2018-09-05T11:49:14.795Z,9.48
2018-09-05T11:50:18.855Z,9.45
2018-09-05T11:51:23.164Z,9.40
2018-09-05T11:52:26.672Z,9.93
2018-09-05T11:53:31.640Z,9.05
2018-09-05T11:54:35.123Z,8.50
2018-09-05T11:55:38.691Z,8.73
2018-09-05T11:56:43.881Z,9.78
2018-09-05T11:57:48.741Z,8.45
2018-09-05T11:58:53.010Z,10.28
2018-09-05T11:59:56.645Z,9.90
2018-09-05T12:01:00.588Z,12.30
2018-09-05T12:02:04.192Z,8.95
2018-09-05T12:03:07.768Z,9.93
2018-09-05T12:04:11.423Z,7.40
2018-09-05T12:05:14.990Z,10.05
2018-09-05T12:06:18.625Z,8.85
2018-09-05T12:07:22.884Z,8.55
2018-09-05T12:08:26.735Z,7.40
2018-09-05T12:09:30.915Z,6.50
2018-09-05T12:10:34.494Z,8.85
2018-09-05T12:11:38.244Z,7.92
2018-09-05T12:12:42.358Z,7.40
2018-09-05T12:13:47.026Z,7.53
2018-09-05T12:14:50.606Z,6.53
2018-09-05T12:15:54.389Z,7.92
2018-09-05T12:16:58.141Z,8.03
2018-09-05T12:18:03.367Z,7.67
2018-09-05T12:19:07.567Z,8.35
2018-09-05T12:20:12.394Z,7.78
2018-09-05T12:21:15.929Z,7.95
2018-09-05T12:22:19.476Z,6.80
2018-09-05T12:23:23.335Z,5.53
2018-09-05T12:24:26.965Z,8.08
2018-09-05T12:25:30.874Z,6.97
2018-09-05T12:26:35.368Z,7.72
2018-09-05T12:27:39.047Z,7.55
2018-09-05T12:28:42.935Z,6.72
2018-09-05T12:29:48.197Z,6.28
2018-09-05T12:30:54.067Z,5.50
2018-09-05T12:31:59.214Z,6.35
2018-09-05T12:33:04.115Z,6.15
2018-09-05T12:34:08.910Z,10.58
2018-09-05T12:35:12.759Z,6.92
2018-09-05T12:36:16.401Z,10.38
2018-09-05T12:37:20.241Z,12.03
2018-09-05T12:38:24.173Z,6.95
2018-09-05T12:39:28.395Z,6.30
2018-09-05T12:40:32.159Z,7.05
2018-09-05T12:41:35.895Z,6.90
2018-09-05T12:42:39.568Z,6.12
2018-09-05T12:43:43.365Z,6.58
2018-09-05T12:44:47.570Z,7.12
2018-09-05T12:45:51.940Z,6.00
2018-09-05T12:46:55.632Z,7.35
2018-09-05T12:47:59.637Z,8.00
2018-09-05T12:49:03.163Z,6.80
2018-09-05T12:50:06.988Z,5.58
2018-09-05T12:51:10.768Z,8.83
2018-09-05T12:52:14.540Z,7.37
2018-09-05T12:53:18.108Z,6.92
2018-09-05T12:54:21.713Z,7.92
2018-09-05T12:55:25.278Z,8.23
2018-09-05T12:56:29.379Z,5.60
2018-09-05T12:57:32.948Z,7.05
2018-09-05T12:58:36.580Z,6.28
2018-09-05T12:59:40.275Z,7.17
2018-09-05T13:00:44.579Z,5.72
2018-09-05T13:01:49.012Z,6.60
2018-09-05T13:02:52.738Z,7.28
2018-09-05T13:03:56.841Z,8.45
2018-09-05T13:05:00.571Z,8.63
2018-09-05T13:06:05.085Z,7.55
2018-09-05T13:07:09.006Z,6.70
2018-09-05T13:08:12.772Z,7.85
2018-09-05T13:09:16.539Z,7.80
2018-09-05T13:10:20.272Z,7.95
2018-09-05T13:11:24.134Z,6.95
2018-09-05T13:12:27.681Z,5.67
2018-09-05T13:13:32.412Z,5.17
2018-09-05T13:14:35.968Z,5.78
2018-09-05T13:15:39.778Z,6.00
2018-09-05T13:16:43.727Z,5.25
2018-09-05T13:17:47.641Z,6.78
2018-09-05T13:18:51.434Z,7.17
2018-09-05T13:19:55.442Z,7.22
2018-09-05T13:20:59.106Z,7.25
2018-09-05T13:22:02.831Z,5.95
2018-09-05T13:23:06.530Z,5.78
2018-09-05T13:24:10.527Z,7.25
2018-09-05T13:25:14.473Z,5.10
2018-09-05T13:26:18.239Z,7.00
2018-09-05T13:27:21.990Z,6.83
2018-09-05T13:28:25.527Z,6.37
2018-09-05T13:29:29.254Z,6.00
2018-09-05T13:30:34.267Z,6.25
2018-09-05T13:31:38.369Z,7.05
2018-09-05T13:32:42.648Z,5.33
2018-09-05T13:33:47.108Z,5.65
2018-09-05T13:34:51.060Z,4.87
2018-09-05T13:35:54.982Z,6.50
2018-09-05T13:36:58.708Z,7.45
2018-09-05T13:38:02.469Z,6.78
2018-09-05T13:39:07.678Z,7.87
2018-09-05T13:40:11.378Z,7.28
2018-09-05T13:41:15.248Z,5.92
2018-09-05T13:42:18.896Z,6.30
2018-09-05T13:43:22.533Z,7.87
2018-09-05T13:44:26.800Z,7.67
2018-09-05T13:45:31.137Z,5.10
2018-09-05T13:46:35.833Z,5.90
2018-09-05T13:47:39.518Z,6.10
2018-09-05T13:48:43.539Z,7.12
2018-09-05T13:49:47.323Z,6.85
2018-09-05T13:50:51.664Z,6.75
2018-09-05T13:52:00.436Z,7.37
2018-09-05T13:53:04.071Z,8.68
2018-09-05T13:54:07.759Z,6.90